createdAt,value
2019-04-14T00:00:31.501Z,2.71
2019-04-14T00:01:32.542Z,2.70
2019-04-14T00:02:31.526Z,2.70
2019-04-14T00:03:32.228Z,2.69
2019-04-14T00:04:31.315Z,2.66
2019-04-14T00:05:33.728Z,2.66
2019-04-14T00:06:31.249Z,2.69
2019-04-14T00:07:31.905Z,2.70
2019-04-14T00:08:31.200Z,2.69
2019-04-14T00:09:31.597Z,2.71
2019-04-14T00:10:31.208Z,2.73
2019-04-14T00:11:32.230Z,2.73
2019-04-14T00:12:31.659Z,2.76
2019-04-14T00:13:31.139Z,2.76
2019-04-14T00:14:31.507Z,2.77
2019-04-14T00:15:38.619Z,2.76
2019-04-14T00:16:32.109Z,2.79
2019-04-14T00:17:31.132Z,2.76
2019-04-14T00:18:31.572Z,2.77
2019-04-14T00:19:31.084Z,2.76
2019-04-14T00:20:31.509Z,2.77
2019-04-14T00:21:31.057Z,2.77
2019-04-14T00:22:32.141Z,2.79
2019-04-14T00:23:31.058Z,2.79
2019-04-14T00:24:31.332Z,2.77
2019-04-14T00:25:31.017Z,2.79
2019-04-14T00:26:31.513Z,2.77
2019-04-14T00:27:30.997Z,2.76
2019-04-14T00:28:31.447Z,2.76
2019-04-14T00:29:30.967Z,2.74
2019-04-14T00:30:31.629Z,2.74
2019-04-14T00:31:30.979Z,2.73
2019-04-14T00:32:31.271Z,2.70
2019-04-14T00:33:30.957Z,2.70
2019-04-14T00:34:30.929Z,2.64
2019-04-14T00:35:31.966Z,2.64
2019-04-14T00:36:30.898Z,2.63
2019-04-14T00:37:31.591Z,2.64
2019-04-14T00:38:30.920Z,2.64
2019-04-14T00:39:31.549Z,2.63
2019-04-14T00:40:31.561Z,2.59
2019-04-14T00:41:41.335Z,2.59
2019-04-14T00:42:32.027Z,2.58
2019-04-14T00:43:30.996Z,2.58
2019-04-14T00:44:31.838Z,2.53
2019-04-14T00:45:40.265Z,2.49
2019-04-14T00:46:33.865Z,2.44
2019-04-14T00:47:31.193Z,2.45
2019-04-14T00:48:31.926Z,2.40
2019-04-14T00:49:31.125Z,2.38
2019-04-14T00:50:31.879Z,2.35
2019-04-14T00:51:30.963Z,2.33
2019-04-14T00:52:31.883Z,2.33
2019-04-14T00:53:31.696Z,2.33
2019-04-14T00:54:30.696Z,2.34
2019-04-14T00:55:31.475Z,2.33
2019-04-14T00:56:30.695Z,2.33
2019-04-14T00:57:31.152Z,2.34
2019-04-14T00:58:30.665Z,2.35
2019-04-14T00:59:31.199Z,2.38
2019-04-14T01:00:31.905Z,2.37
2019-04-14T01:01:30.890Z,2.34
2019-04-14T01:02:31.781Z,2.35
2019-04-14T01:03:30.933Z,2.33
2019-04-14T01:04:31.621Z,2.33
2019-04-14T01:05:32.948Z,2.33
2019-04-14T01:06:31.463Z,2.30
2019-04-14T01:07:30.616Z,2.28
2019-04-14T01:08:31.421Z,2.26
2019-04-14T01:09:30.575Z,2.20
2019-04-14T01:10:30.548Z,2.22
2019-04-14T01:11:31.354Z,2.19
2019-04-14T01:12:30.515Z,2.19
2019-04-14T01:13:31.111Z,2.17
2019-04-14T01:14:30.503Z,2.19
2019-04-14T01:15:32.400Z,2.19
2019-04-14T01:16:31.927Z,2.15
2019-04-14T01:17:30.958Z,2.15
2019-04-14T01:18:30.445Z,2.15
2019-04-14T01:19:30.971Z,2.16
2019-04-14T01:20:31.739Z,2.16
2019-04-14T01:21:30.748Z,2.16
2019-04-14T01:22:31.387Z,2.15
2019-04-14T01:23:30.533Z,2.13
2019-04-14T01:24:31.460Z,2.10
2019-04-14T01:25:30.363Z,2.10
2019-04-14T01:26:31.063Z,2.12
2019-04-14T01:27:30.356Z,2.09
2019-04-14T01:28:30.813Z,2.09
2019-04-14T01:29:30.342Z,2.09
2019-04-14T01:30:30.628Z,2.09
2019-04-14T01:31:30.303Z,2.08
2019-04-14T01:32:30.539Z,2.08
2019-04-14T01:33:31.494Z,2.06
2019-04-14T01:34:30.274Z,2.06
2019-04-14T01:35:31.334Z,2.08
2019-04-14T01:36:30.243Z,2.09
2019-04-14T01:37:31.167Z,2.10
2019-04-14T01:38:30.232Z,2.09
2019-04-14T01:39:30.772Z,2.09
2019-04-14T01:40:31.337Z,2.08
2019-04-14T01:41:30.340Z,2.06
2019-04-14T01:42:31.065Z,2.04
2019-04-14T01:43:30.172Z,2.02
2019-04-14T01:44:30.715Z,2.02
2019-04-14T01:45:30.151Z,2.01
2019-04-14T01:46:32.768Z,2.01
2019-04-14T01:47:31.307Z,1.99
2019-04-14T01:48:30.155Z,1.94
2019-04-14T01:49:31.064Z,1.90
2019-04-14T01:50:30.114Z,1.89
2019-04-14T01:51:30.965Z,1.89
2019-04-14T01:52:30.082Z,1.89
2019-04-14T01:53:30.069Z,1.89
2019-04-14T01:54:30.060Z,1.87
2019-04-14T01:55:30.901Z,1.87
2019-04-14T01:56:30.044Z,1.87
2019-04-14T01:57:30.690Z,1.85
2019-04-14T01:58:30.010Z,1.85
2019-04-14T01:59:30.534Z,1.83
2019-04-14T02:00:30.004Z,1.80
2019-04-14T02:01:30.318Z,1.78
2019-04-14T02:02:29.970Z,1.76
2019-04-14T02:03:30.275Z,1.75
2019-04-14T02:04:31.232Z,1.72
2019-04-14T02:05:30.041Z,1.69
2019-04-14T02:06:31.011Z,1.68
2019-04-14T02:07:29.932Z,1.65
2019-04-14T02:08:30.780Z,1.64
2019-04-14T02:09:29.909Z,1.60
2019-04-14T02:10:30.480Z,1.57
2019-04-14T02:11:31.258Z,1.54
2019-04-14T02:12:30.207Z,1.50
2019-04-14T02:13:31.020Z,1.44
2019-04-14T02:14:30.121Z,1.43
2019-04-14T02:15:30.892Z,1.40
2019-04-14T02:16:37.944Z,1.37
2019-04-14T02:17:30.820Z,1.39
2019-04-14T02:18:29.822Z,1.37
2019-04-14T02:19:30.623Z,1.37
2019-04-14T02:20:29.779Z,1.37
2019-04-14T02:21:30.294Z,1.37
2019-04-14T02:22:29.751Z,1.37
2019-04-14T02:23:30.197Z,1.42
2019-04-14T02:24:30.862Z,1.43
2019-04-14T02:25:29.728Z,1.46
2019-04-14T02:26:30.810Z,1.50
2019-04-14T02:27:29.807Z,1.52
2019-04-14T02:28:30.935Z,1.52
2019-04-14T02:29:29.793Z,1.52
2019-04-14T02:30:36.218Z,1.54
2019-04-14T02:31:57.052Z,1.52
2019-04-14T02:33:00.828Z,1.54
2019-04-14T02:34:02.215Z,1.52
2019-04-14T02:35:06.237Z,1.52
2019-04-14T02:37:05.353Z,1.52
2019-04-14T02:38:08.852Z,1.51
2019-04-14T02:38:55.317Z,1.52
2019-04-14T02:40:01.311Z,1.51
2019-04-14T02:42:54.164Z,1.51
2019-04-14T02:44:14.007Z,1.50
2019-04-14T02:45:57.487Z,1.50
2019-04-14T02:46:59.999Z,1.51
2019-04-14T02:48:05.348Z,1.51
2019-04-14T02:48:55.502Z,1.51
2019-04-14T02:50:02.741Z,1.51
2019-04-14T02:50:59.531Z,1.51
2019-04-14T02:51:56.360Z,1.51
2019-04-14T02:53:00.945Z,1.50
2019-04-14T02:53:57.634Z,1.52
2019-04-14T02:55:57.580Z,1.60
2019-04-14T02:57:52.783Z,1.64
2019-04-14T02:59:59.479Z,1.65
2019-04-14T03:00:58.468Z,1.64
2019-04-14T03:02:18.929Z,1.64
2019-04-14T03:02:52.874Z,1.62
2019-04-14T03:03:59.992Z,1.61
2019-04-14T03:04:57.152Z,1.58
2019-04-14T03:06:01.926Z,1.52
2019-04-14T03:06:55.077Z,1.50
2019-04-14T03:09:01.194Z,1.42
2019-04-14T03:10:14.238Z,1.39
2019-04-14T03:10:53.965Z,1.34
2019-04-14T03:11:51.798Z,1.29
2019-04-14T03:13:01.945Z,1.26
2019-04-14T03:14:01.189Z,1.24
2019-04-14T03:14:58.879Z,1.19
2019-04-14T03:15:59.039Z,1.15
2019-04-14T03:17:06.146Z,1.15
2019-04-14T03:18:24.039Z,1.15
2019-04-14T03:18:50.606Z,1.14
2019-04-14T03:20:09.400Z,1.15
2019-04-14T03:20:59.174Z,1.14
2019-04-14T03:22:09.715Z,1.14
2019-04-14T03:23:56.391Z,1.14
2019-04-14T03:24:42.061Z,1.12
2019-04-14T03:25:49.239Z,1.08
2019-04-14T03:27:00.307Z,1.07
2019-04-14T03:28:04.272Z,1.04
2019-04-14T03:28:51.118Z,1.04
2019-04-14T03:29:59.875Z,1.03
2019-04-14T03:31:12.003Z,1.01
2019-04-14T03:33:18.532Z,0.96
2019-04-14T03:34:21.359Z,0.94
2019-04-14T03:35:03.547Z,0.92
2019-04-14T03:36:40.326Z,0.90
2019-04-14T03:38:58.927Z,0.90
2019-04-14T03:39:51.244Z,0.94
2019-04-14T03:40:58.544Z,0.92
2019-04-14T03:41:52.822Z,0.96
2019-04-14T03:43:05.069Z,0.96
2019-04-14T03:43:50.404Z,0.96
2019-04-14T03:45:18.508Z,0.96
2019-04-14T03:47:05.524Z,0.92
2019-04-14T03:48:20.858Z,0.89
2019-04-14T03:48:58.678Z,0.85
2019-04-14T03:49:54.703Z,0.83
2019-04-14T03:52:59.318Z,0.80
2019-04-14T03:53:53.530Z,0.80
2019-04-14T03:54:44.338Z,0.78
2019-04-14T03:55:39.433Z,0.76
2019-04-14T03:56:29.740Z,0.72
2019-04-14T03:57:30.066Z,0.72
2019-04-14T03:58:29.247Z,0.71
2019-04-14T03:59:28.709Z,0.70
2019-04-14T04:00:29.183Z,0.70
2019-04-14T04:01:28.671Z,0.67
2019-04-14T04:02:29.414Z,0.64
2019-04-14T04:03:28.672Z,0.64
2019-04-14T04:04:29.446Z,0.62
2019-04-14T04:05:28.639Z,0.62
2019-04-14T04:06:29.259Z,0.64
2019-04-14T04:07:28.610Z,0.65
2019-04-14T04:08:29.143Z,0.65
2019-04-14T04:09:28.602Z,0.65
2019-04-14T04:10:29.232Z,0.64
2019-04-14T04:11:28.569Z,0.62
2019-04-14T04:12:29.250Z,0.61
2019-04-14T04:13:28.569Z,0.61
2019-04-14T04:14:29.188Z,0.58
2019-04-14T04:15:28.528Z,0.57
2019-04-14T04:16:29.113Z,0.52
2019-04-14T04:17:29.687Z,0.48
2019-04-14T04:18:28.763Z,0.46
2019-04-14T04:19:29.430Z,0.45
2019-04-14T04:20:28.621Z,0.45
2019-04-14T04:21:29.139Z,0.43
2019-04-14T04:22:28.448Z,0.45
2019-04-14T04:23:29.177Z,0.45
2019-04-14T04:24:30.604Z,0.43
2019-04-14T04:25:28.989Z,0.43
2019-04-14T04:26:28.431Z,0.46
2019-04-14T04:27:28.773Z,0.45
2019-04-14T04:28:28.401Z,0.45
2019-04-14T04:29:28.816Z,0.45
2019-04-14T04:30:28.375Z,0.43
2019-04-14T04:31:28.587Z,0.41
2019-04-14T04:32:28.348Z,0.39
2019-04-14T04:33:28.478Z,0.34
2019-04-14T04:34:29.411Z,0.31
2019-04-14T04:35:28.340Z,0.30
2019-04-14T04:36:29.154Z,0.27
2019-04-14T04:37:28.297Z,0.25
2019-04-14T04:38:29.101Z,0.27
2019-04-14T04:39:28.267Z,0.25
2019-04-14T04:40:29.035Z,0.24
2019-04-14T04:41:28.246Z,0.23
2019-04-14T04:42:28.696Z,0.23
2019-04-14T04:43:28.227Z,0.23
2019-04-14T04:44:29.098Z,0.18
2019-04-14T04:45:28.232Z,0.16
2019-04-14T04:46:28.766Z,0.15
2019-04-14T04:47:29.424Z,0.13
2019-04-14T04:48:28.481Z,0.10
2019-04-14T04:49:29.709Z,0.10
2019-04-14T04:50:28.287Z,0.07
2019-04-14T04:51:28.969Z,0.07
2019-04-14T04:52:28.169Z,0.05
2019-04-14T04:53:28.814Z,0.05
2019-04-14T04:54:28.116Z,0.02
2019-04-14T04:55:28.608Z,0.00
2019-04-14T04:56:28.105Z,0.00
2019-04-14T04:57:28.543Z,-0.01
2019-04-14T04:58:28.376Z,-0.01
2019-04-14T04:59:28.056Z,-0.01
2019-04-14T05:00:28.778Z,-0.01
2019-04-14T05:01:28.064Z,0.00
2019-04-14T05:02:28.779Z,0.02
2019-04-14T05:03:28.004Z,0.02
2019-04-14T05:04:28.646Z,0.05
2019-04-14T05:05:28.007Z,0.05
2019-04-14T05:06:28.792Z,0.09
2019-04-14T05:07:27.984Z,0.07
2019-04-14T05:08:28.415Z,0.09
2019-04-14T05:09:27.954Z,0.07
2019-04-14T05:10:28.556Z,0.09
2019-04-14T05:11:27.928Z,0.10
2019-04-14T05:12:28.374Z,0.09
2019-04-14T05:13:29.126Z,0.10
2019-04-14T05:14:28.342Z,0.12
2019-04-14T05:15:28.877Z,0.12
2019-04-14T05:16:28.133Z,0.15
2019-04-14T05:17:27.863Z,0.18
2019-04-14T05:18:28.976Z,0.20
2019-04-14T05:19:32.947Z,0.20
2019-04-14T05:20:29.170Z,0.23
2019-04-14T05:21:27.814Z,0.25
2019-04-14T05:22:28.845Z,0.33
2019-04-14T05:23:27.895Z,0.38
2019-04-14T05:24:28.978Z,0.52
2019-04-14T05:25:27.782Z,0.61
2019-04-14T05:26:28.674Z,0.61
2019-04-14T05:27:27.765Z,0.62
2019-04-14T05:28:28.799Z,0.62
2019-04-14T05:29:27.735Z,0.64
2019-04-14T05:30:28.587Z,0.61
2019-04-14T05:31:29.066Z,0.64
2019-04-14T05:32:28.406Z,0.68
2019-04-14T05:33:27.690Z,0.70
2019-04-14T05:34:28.347Z,0.71
2019-04-14T05:35:27.695Z,0.72
2019-04-14T05:36:28.137Z,0.72
2019-04-14T05:37:27.671Z,0.71
2019-04-14T05:38:29.440Z,0.71
2019-04-14T05:39:28.550Z,0.72
2019-04-14T05:40:27.805Z,0.75
2019-04-14T05:41:28.666Z,0.75
2019-04-14T05:42:28.664Z,0.78
2019-04-14T05:43:37.028Z,0.79
2019-04-14T05:44:29.640Z,0.83
2019-04-14T05:45:28.473Z,0.83
2019-04-14T05:46:27.549Z,0.86
2019-04-14T05:47:28.344Z,0.89
2019-04-14T05:48:27.520Z,0.90
2019-04-14T05:49:35.262Z,0.90
2019-04-14T05:50:29.258Z,0.96
2019-04-14T05:51:28.408Z,1.00
2019-04-14T05:52:27.492Z,1.03
2019-04-14T05:53:28.359Z,1.06
2019-04-14T05:54:27.520Z,1.10
2019-04-14T05:55:28.431Z,1.16
2019-04-14T05:56:27.511Z,1.21
2019-04-14T05:57:28.345Z,1.26
2019-04-14T05:58:27.569Z,1.32
2019-04-14T05:59:28.512Z,1.34
2019-04-14T06:00:27.792Z,1.39
2019-04-14T06:01:27.389Z,1.40
2019-04-14T06:02:28.874Z,1.42
2019-04-14T06:03:27.767Z,1.44
2019-04-14T06:04:28.517Z,1.44
2019-04-14T06:05:27.509Z,1.47
2019-04-14T06:06:27.356Z,1.51
2019-04-14T06:07:27.331Z,1.54
2019-04-14T06:08:27.329Z,1.57
2019-04-14T06:09:27.310Z,1.58
2019-04-14T06:10:27.305Z,1.60
2019-04-14T06:11:27.297Z,1.62
2019-04-14T06:12:27.276Z,1.65
2019-04-14T06:13:27.257Z,1.68
2019-04-14T06:14:27.247Z,1.75
2019-04-14T06:15:27.263Z,1.79
2019-04-14T06:16:27.246Z,1.82
2019-04-14T06:17:27.208Z,1.85
2019-04-14T06:18:27.206Z,1.91
2019-04-14T06:19:36.522Z,1.94
2019-04-14T06:20:28.189Z,1.97
2019-04-14T06:21:27.165Z,1.97
2019-04-14T06:22:27.166Z,1.98
2019-04-14T06:23:27.174Z,2.02
2019-04-14T06:24:27.168Z,2.06
2019-04-14T06:25:27.130Z,2.04
2019-04-14T06:26:27.116Z,2.06
2019-04-14T06:27:27.105Z,2.13
2019-04-14T06:28:27.094Z,2.17
2019-04-14T06:29:27.106Z,2.20
2019-04-14T06:30:27.090Z,2.22
2019-04-14T06:31:27.055Z,2.27
2019-04-14T06:32:27.059Z,2.30
2019-04-14T06:33:27.054Z,2.27
2019-04-14T06:34:27.025Z,2.30
2019-04-14T06:35:27.016Z,2.31
2019-04-14T06:36:27.006Z,2.37
2019-04-14T06:37:27.008Z,2.35
2019-04-14T06:38:27.004Z,2.37
2019-04-14T06:39:27.000Z,2.37
2019-04-14T06:40:26.965Z,2.38
2019-04-14T06:41:26.953Z,2.44
2019-04-14T06:42:26.943Z,2.48
2019-04-14T06:43:26.943Z,2.49
2019-04-14T06:44:26.925Z,2.49
2019-04-14T06:45:26.905Z,2.53
2019-04-14T06:46:26.904Z,2.52
2019-04-14T06:47:26.893Z,2.55
2019-04-14T06:48:26.876Z,2.58
2019-04-14T06:49:26.882Z,2.66
2019-04-14T06:50:26.853Z,2.70
2019-04-14T06:51:26.842Z,2.66
2019-04-14T06:52:26.854Z,2.69
2019-04-14T06:53:26.837Z,2.74
2019-04-14T06:54:26.821Z,2.79
2019-04-14T06:55:26.835Z,2.81
2019-04-14T06:56:26.792Z,2.82
2019-04-14T06:57:26.771Z,2.85
2019-04-14T06:58:26.772Z,2.88
2019-04-14T06:59:26.754Z,2.94
2019-04-14T07:00:26.741Z,2.98
2019-04-14T07:01:26.745Z,2.97
2019-04-14T07:02:26.767Z,2.95
2019-04-14T07:03:26.715Z,3.00
2019-04-14T07:04:26.710Z,3.02
2019-04-14T07:05:26.702Z,3.02
2019-04-14T07:06:26.690Z,3.02
2019-04-14T07:07:26.694Z,3.03
2019-04-14T07:08:26.660Z,3.03
2019-04-14T07:09:26.657Z,3.09
2019-04-14T07:10:26.649Z,3.15
2019-04-14T07:11:26.620Z,3.21
2019-04-14T07:12:26.612Z,3.25
2019-04-14T07:13:26.603Z,3.28
2019-04-14T07:14:26.601Z,3.36
2019-04-14T07:15:26.599Z,3.39
2019-04-14T07:16:26.589Z,3.42
2019-04-14T07:17:26.560Z,3.44
2019-04-14T07:18:26.549Z,3.46
2019-04-14T07:19:26.539Z,3.46
2019-04-14T07:20:26.552Z,3.49
2019-04-14T07:21:26.528Z,3.54
2019-04-14T07:22:26.498Z,3.57
2019-04-14T07:23:26.488Z,3.62
2019-04-14T07:24:26.556Z,3.67
2019-04-14T07:25:26.499Z,3.71
2019-04-14T07:26:26.476Z,3.75
2019-04-14T07:27:26.458Z,3.71
2019-04-14T07:28:26.448Z,3.76
2019-04-14T07:29:26.449Z,3.76
2019-04-14T07:30:26.426Z,3.80
2019-04-14T07:31:26.417Z,3.88
2019-04-14T07:32:26.449Z,3.94
2019-04-14T07:33:26.387Z,4.01
2019-04-14T07:34:26.377Z,4.10
2019-04-14T07:35:26.367Z,4.16
2019-04-14T07:36:26.373Z,4.16
2019-04-14T07:37:26.404Z,4.15
2019-04-14T07:38:26.360Z,4.19
2019-04-14T07:39:26.336Z,4.28
2019-04-14T07:40:26.316Z,4.29
2019-04-14T07:41:26.316Z,4.33
2019-04-14T07:42:26.314Z,4.34
2019-04-14T07:43:26.289Z,4.34
2019-04-14T07:44:26.266Z,4.25
2019-04-14T07:45:26.268Z,4.18
2019-04-14T07:46:26.280Z,4.19
2019-04-14T07:47:26.236Z,4.19
2019-04-14T07:48:26.250Z,4.16
2019-04-14T07:49:26.225Z,4.10
2019-04-14T07:50:26.206Z,4.10
2019-04-14T07:51:26.198Z,4.19
2019-04-14T07:52:26.215Z,4.24
2019-04-14T07:53:26.174Z,4.32
2019-04-14T07:54:26.158Z,4.36
2019-04-14T07:55:26.160Z,4.40
2019-04-14T07:56:26.151Z,4.46
2019-04-14T07:57:26.124Z,4.52
2019-04-14T07:58:26.177Z,4.54
2019-04-14T07:59:26.117Z,4.55
2019-04-14T08:00:26.094Z,4.59
2019-04-14T08:01:26.137Z,4.65
2019-04-14T08:02:26.089Z,4.64
2019-04-14T08:03:26.063Z,4.69
2019-04-14T08:04:26.055Z,4.75
2019-04-14T08:05:26.034Z,4.75
2019-04-14T08:06:26.036Z,4.65
2019-04-14T08:07:26.030Z,4.65
2019-04-14T08:08:26.002Z,4.72
2019-04-14T08:09:26.013Z,4.73
2019-04-14T08:10:26.002Z,4.76
2019-04-14T08:11:26.070Z,4.80
2019-04-14T08:12:25.962Z,4.91
2019-04-14T08:13:25.958Z,5.01
2019-04-14T08:14:25.974Z,5.04
2019-04-14T08:15:25.953Z,5.09
2019-04-14T08:16:25.935Z,5.09
2019-04-14T08:17:25.912Z,5.14
2019-04-14T08:18:25.891Z,5.20
2019-04-14T08:19:25.911Z,5.19
2019-04-14T08:20:27.561Z,5.14
2019-04-14T08:21:25.873Z,5.19
2019-04-14T08:22:25.870Z,5.23
2019-04-14T08:23:25.851Z,5.25
2019-04-14T08:24:25.868Z,5.30
2019-04-14T08:25:25.822Z,5.37
2019-04-14T08:26:25.820Z,5.43
2019-04-14T08:27:25.799Z,5.50
2019-04-14T08:28:25.791Z,5.53
2019-04-14T08:29:25.781Z,5.53
2019-04-14T08:30:25.763Z,5.56
2019-04-14T08:31:25.760Z,5.52
2019-04-14T08:32:25.739Z,5.55
2019-04-14T08:33:25.744Z,5.60
2019-04-14T08:34:25.722Z,5.68
2019-04-14T08:35:25.708Z,5.77
2019-04-14T08:36:25.721Z,5.86
2019-04-14T08:37:25.704Z,5.82
2019-04-14T08:38:25.670Z,5.83
2019-04-14T08:39:25.674Z,5.77
2019-04-14T08:40:25.649Z,5.81
2019-04-14T08:41:25.659Z,5.91
2019-04-14T08:42:25.639Z,5.89
2019-04-14T08:43:25.639Z,5.91
2019-04-14T08:44:25.639Z,5.91
2019-04-14T08:45:25.598Z,5.93
2019-04-14T08:46:25.599Z,5.98
2019-04-14T08:47:25.600Z,6.04
2019-04-14T08:48:25.588Z,6.10
2019-04-14T08:49:25.580Z,6.19
2019-04-14T08:50:25.558Z,6.29
2019-04-14T08:51:25.538Z,6.38
2019-04-14T08:52:25.519Z,6.41
2019-04-14T08:53:25.528Z,6.48
2019-04-14T08:54:25.558Z,6.48
2019-04-14T08:55:25.495Z,6.46
2019-04-14T08:56:25.479Z,6.41
2019-04-14T08:57:25.467Z,6.41
2019-04-14T08:58:25.456Z,6.48
2019-04-14T08:59:25.448Z,6.56
2019-04-14T09:00:25.437Z,6.53
2019-04-14T09:01:25.448Z,6.51
2019-04-14T09:02:25.420Z,6.54
2019-04-14T09:03:25.807Z,6.51
2019-04-14T09:04:25.387Z,6.50
2019-04-14T09:05:25.390Z,6.54
2019-04-14T09:06:25.366Z,6.61
2019-04-14T09:07:25.366Z,6.62
2019-04-14T09:08:25.354Z,6.69
2019-04-14T09:09:25.418Z,6.73
2019-04-14T09:10:25.336Z,6.76
2019-04-14T09:11:25.319Z,6.73
2019-04-14T09:12:25.295Z,6.76
2019-04-14T09:13:25.306Z,6.81
2019-04-14T09:14:25.307Z,6.77
2019-04-14T09:15:25.265Z,6.81
2019-04-14T09:16:25.256Z,6.86
2019-04-14T09:17:25.246Z,6.87
2019-04-14T09:18:25.248Z,6.97
2019-04-14T09:19:25.231Z,7.05
2019-04-14T09:20:25.225Z,7.04
2019-04-14T09:21:25.206Z,7.05
2019-04-14T09:22:25.197Z,7.02
2019-04-14T09:23:25.186Z,7.08
2019-04-14T09:24:25.174Z,7.13
2019-04-14T09:25:25.164Z,7.09
2019-04-14T09:26:25.154Z,7.01
2019-04-14T09:27:25.154Z,7.09
2019-04-14T09:28:25.133Z,7.13
2019-04-14T09:29:25.115Z,7.19
2019-04-14T09:30:25.117Z,7.16
2019-04-14T09:31:25.103Z,7.17
2019-04-14T09:32:25.084Z,7.09
2019-04-14T09:33:25.082Z,7.02
2019-04-14T09:34:25.064Z,7.12
2019-04-14T09:35:25.053Z,7.22
2019-04-14T09:36:25.044Z,7.15
2019-04-14T09:37:25.037Z,7.22
2019-04-14T09:38:25.015Z,7.34
2019-04-14T09:39:25.003Z,7.31
2019-04-14T09:40:25.005Z,7.23
2019-04-14T09:41:24.993Z,7.29
2019-04-14T09:42:24.973Z,7.35
2019-04-14T09:43:24.964Z,7.38
2019-04-14T09:44:24.951Z,7.42
2019-04-14T09:45:24.941Z,7.45
2019-04-14T09:46:24.963Z,7.50
2019-04-14T09:47:24.922Z,7.53
2019-04-14T09:48:24.902Z,7.60
2019-04-14T09:49:24.902Z,7.69
2019-04-14T09:50:24.883Z,7.81
2019-04-14T09:51:24.883Z,7.94
2019-04-14T09:52:24.885Z,7.99
2019-04-14T09:53:24.852Z,7.97
2019-04-14T09:54:24.852Z,8.02
2019-04-14T09:55:24.831Z,8.02
2019-04-14T09:56:24.830Z,8.00
2019-04-14T09:57:24.835Z,8.04
2019-04-14T09:58:24.841Z,8.00
2019-04-14T09:59:24.792Z,8.04
2019-04-14T10:00:24.795Z,8.15
2019-04-14T10:01:24.761Z,8.21
2019-04-14T10:02:24.761Z,8.22
2019-04-14T10:03:24.781Z,8.28
2019-04-14T10:04:24.747Z,8.21
2019-04-14T10:05:24.729Z,8.29
2019-04-14T10:06:24.714Z,8.29
2019-04-14T10:07:24.701Z,8.21
2019-04-14T10:08:24.689Z,8.07
2019-04-14T10:09:24.712Z,8.14
2019-04-14T10:10:24.699Z,8.26
2019-04-14T10:11:24.673Z,8.21
2019-04-14T10:12:24.651Z,8.28
2019-04-14T10:13:24.650Z,8.28
2019-04-14T10:14:24.630Z,8.35
2019-04-14T10:15:24.619Z,8.17
2019-04-14T10:16:24.614Z,8.21
2019-04-14T10:17:24.590Z,8.30
2019-04-14T10:18:24.600Z,8.40
2019-04-14T10:19:24.579Z,8.51
2019-04-14T10:20:24.559Z,8.60
2019-04-14T10:21:24.540Z,8.71
2019-04-14T10:22:33.774Z,8.76
2019-04-14T10:23:25.529Z,8.87
2019-04-14T10:24:24.522Z,8.90
2019-04-14T10:25:24.508Z,8.87
2019-04-14T10:26:24.507Z,8.81
2019-04-14T10:27:24.479Z,8.69
2019-04-14T10:28:24.479Z,8.68
2019-04-14T10:29:24.459Z,8.76
2019-04-14T10:30:24.457Z,8.79
2019-04-14T10:31:24.439Z,8.84
2019-04-14T10:32:24.429Z,8.73
2019-04-14T10:33:24.446Z,8.65
2019-04-14T10:34:24.400Z,8.62
2019-04-14T10:35:24.398Z,8.65
2019-04-14T10:36:24.388Z,8.65
2019-04-14T10:37:24.380Z,8.63
2019-04-14T10:38:24.380Z,8.72
2019-04-14T10:39:24.378Z,8.79
2019-04-14T10:40:24.337Z,8.87
2019-04-14T10:41:24.328Z,8.94
2019-04-14T10:42:24.319Z,9.02
2019-04-14T10:43:24.308Z,9.06
2019-04-14T10:44:24.331Z,9.15
2019-04-14T10:45:24.298Z,9.30
2019-04-14T10:46:24.280Z,9.46
2019-04-14T10:47:24.268Z,9.53
2019-04-14T10:48:24.270Z,9.70
2019-04-14T10:49:24.256Z,9.86
2019-04-14T10:50:30.666Z,10.03
2019-04-14T10:51:30.261Z,10.19
2019-04-14T10:52:25.221Z,10.22
2019-04-14T10:53:24.220Z,10.26
2019-04-14T10:54:24.187Z,10.18
2019-04-14T10:55:24.207Z,9.93
2019-04-14T10:56:24.166Z,9.75
2019-04-14T10:57:24.148Z,9.57
2019-04-14T10:58:24.137Z,9.49
2019-04-14T10:59:24.148Z,9.58
2019-04-14T11:00:24.127Z,9.63
2019-04-14T11:01:24.126Z,9.63
2019-04-14T11:02:24.104Z,9.63
2019-04-14T11:03:24.086Z,9.52
2019-04-14T11:04:24.098Z,9.35
2019-04-14T11:05:24.076Z,9.21
2019-04-14T11:06:24.131Z,9.09
2019-04-14T11:07:24.036Z,9.01
2019-04-14T11:08:24.029Z,9.05
2019-04-14T11:09:24.025Z,9.06
2019-04-14T11:10:24.017Z,9.16
2019-04-14T11:11:24.005Z,9.35
2019-04-14T11:12:23.999Z,9.58
2019-04-14T11:13:23.975Z,9.75
2019-04-14T11:14:23.956Z,9.94
2019-04-14T11:15:23.975Z,9.94
2019-04-14T11:16:23.968Z,9.94
2019-04-14T11:17:23.928Z,9.94
2019-04-14T11:18:23.916Z,9.94
2019-04-14T11:19:23.930Z,9.97
2019-04-14T11:20:23.905Z,9.99
2019-04-14T11:21:23.898Z,10.07
2019-04-14T11:22:23.909Z,10.18
2019-04-14T11:23:23.865Z,10.21
2019-04-14T11:24:24.161Z,10.26
2019-04-14T11:25:23.850Z,10.25
2019-04-14T11:26:23.855Z,10.32
2019-04-14T11:27:23.855Z,10.33
2019-04-14T11:28:23.819Z,10.42
2019-04-14T11:29:23.795Z,10.40
2019-04-14T11:30:23.807Z,10.18
2019-04-14T11:31:23.785Z,9.86
2019-04-14T11:32:23.861Z,9.68
2019-04-14T11:33:23.777Z,9.64
2019-04-14T11:34:23.749Z,9.75
2019-04-14T11:35:23.736Z,9.81
2019-04-14T11:36:23.735Z,10.03
2019-04-14T11:37:23.727Z,10.32
2019-04-14T11:38:23.724Z,10.58
2019-04-14T11:39:23.713Z,10.81
2019-04-14T11:40:23.684Z,10.91
2019-04-14T11:41:23.697Z,11.03
2019-04-14T11:42:23.663Z,11.19
2019-04-14T11:43:23.672Z,11.25
2019-04-14T11:44:23.635Z,11.41
2019-04-14T11:45:23.624Z,11.44
2019-04-14T11:46:23.617Z,11.46
2019-04-14T11:47:23.603Z,11.28
2019-04-14T11:48:23.634Z,11.20
2019-04-14T11:49:23.585Z,11.14
2019-04-14T11:50:23.576Z,11.19
2019-04-14T11:51:23.567Z,11.14
2019-04-14T11:52:23.543Z,10.92
2019-04-14T11:53:23.553Z,10.68
2019-04-14T11:54:23.533Z,10.52
2019-04-14T11:55:23.543Z,10.36
2019-04-14T11:56:23.517Z,10.40
2019-04-14T11:57:23.493Z,10.40
2019-04-14T11:58:23.483Z,10.56
2019-04-14T11:59:23.493Z,10.73
2019-04-14T12:00:23.465Z,10.76
2019-04-14T12:01:23.472Z,10.81
2019-04-14T12:02:23.462Z,10.89
2019-04-14T12:03:23.433Z,10.76
2019-04-14T12:04:23.413Z,10.84
2019-04-14T12:05:23.403Z,11.01
2019-04-14T12:06:23.403Z,11.09
2019-04-14T12:07:23.382Z,11.14
2019-04-14T12:08:23.382Z,11.24
2019-04-14T12:09:23.363Z,11.41
2019-04-14T12:10:23.352Z,11.54
2019-04-14T12:11:23.382Z,11.50
2019-04-14T12:12:23.364Z,11.46
2019-04-14T12:13:23.323Z,11.46
2019-04-14T12:14:23.302Z,11.52
2019-04-14T12:15:23.306Z,11.56
2019-04-14T12:16:23.302Z,11.49
2019-04-14T12:17:23.290Z,11.34
2019-04-14T12:18:23.262Z,11.13
2019-04-14T12:19:23.264Z,11.02
2019-04-14T12:20:23.252Z,10.91
2019-04-14T12:21:23.232Z,10.83
2019-04-14T12:22:23.234Z,10.76
2019-04-14T12:23:23.207Z,10.62
2019-04-14T12:24:23.204Z,10.52
2019-04-14T12:25:23.225Z,10.32
2019-04-14T12:26:23.226Z,10.30
2019-04-14T12:27:23.161Z,10.25
2019-04-14T12:28:24.043Z,10.42
2019-04-14T12:29:23.622Z,10.60
2019-04-14T12:30:24.390Z,10.81
2019-04-14T12:31:24.175Z,10.91
2019-04-14T12:32:23.112Z,10.92
2019-04-14T12:33:23.104Z,10.95
2019-04-14T12:34:23.081Z,10.98
2019-04-14T12:35:23.071Z,10.99
2019-04-14T12:36:23.070Z,11.01
2019-04-14T12:37:23.082Z,11.03
2019-04-14T12:38:23.051Z,10.94
2019-04-14T12:39:23.051Z,10.86
2019-04-14T12:40:23.030Z,10.83
2019-04-14T12:41:23.886Z,10.77
2019-04-14T12:42:23.001Z,10.70
2019-04-14T12:43:23.002Z,10.40
2019-04-14T12:44:22.994Z,10.28
2019-04-14T12:45:22.960Z,10.37
2019-04-14T12:46:22.961Z,10.46
2019-04-14T12:47:22.941Z,10.55
2019-04-14T12:48:22.972Z,10.58
2019-04-14T12:49:22.931Z,10.65
2019-04-14T12:50:22.914Z,10.68
2019-04-14T12:51:22.904Z,10.78
2019-04-14T12:52:22.880Z,10.94
2019-04-14T12:53:22.895Z,11.11
2019-04-14T12:54:22.870Z,11.34
2019-04-14T12:55:22.860Z,11.34
2019-04-14T12:56:22.841Z,11.46
2019-04-14T12:57:22.841Z,11.56
2019-04-14T12:58:22.880Z,11.59
2019-04-14T12:59:23.389Z,11.68
2019-04-14T13:00:22.810Z,11.72
2019-04-14T13:01:22.870Z,11.71
2019-04-14T13:02:22.800Z,11.64
2019-04-14T13:03:22.764Z,11.53
2019-04-14T13:04:22.889Z,11.28
2019-04-14T13:05:22.740Z,11.24
2019-04-14T13:06:22.740Z,11.17
2019-04-14T13:07:22.747Z,11.10
2019-04-14T13:08:22.711Z,11.07
2019-04-14T13:09:22.721Z,11.09
2019-04-14T13:10:22.893Z,11.10
2019-04-14T13:11:22.680Z,10.96
2019-04-14T13:12:22.690Z,11.03
2019-04-14T13:13:22.672Z,11.01
2019-04-14T13:14:22.649Z,11.11
2019-04-14T13:15:22.663Z,11.01
2019-04-14T13:16:22.629Z,10.99
2019-04-14T13:17:22.609Z,11.10
2019-04-14T13:18:22.614Z,11.21
2019-04-14T13:19:22.632Z,11.35
2019-04-14T13:20:22.600Z,11.31
2019-04-14T13:21:22.569Z,11.28
2019-04-14T13:22:33.414Z,11.21
2019-04-14T13:23:23.550Z,11.03
2019-04-14T13:24:22.539Z,11.09
2019-04-14T13:25:22.549Z,11.13
2019-04-14T13:26:22.529Z,11.14
2019-04-14T13:27:23.292Z,11.14
2019-04-14T13:28:22.498Z,11.19
2019-04-14T13:29:22.493Z,11.13